Latest Coastal Weather Observations for Hamilton Island

IDQ60701

Issued at 8:42 am EST Wednesday 18 October 2017 (issued every 10 minutes, with the page automatically refreshed every 10 minutes)

About coastal observations | Map of coastal stations | Coastal observations for QLD | Marine services | Other Formats
Station Details ID: 033106 Name: HAMILTON ISLAND AIRPORT Lat: -20.37 Lon: 148.95 Height: 58.66 m
Data from the previous 72 hours. | See also: Recent months at Hamilton Island
Date/Time
EST
Temp
°C
Wind Pressure Rain since
9am
mm
Weather Cloud Vis
km
Sea
Height
m
Swell
Dir  Spd
kts
Gust
kts
hPa Trend Height
m
Period
s
Dir
18/08:30am 23.7 ENE 17 23 1014.7 - 16.0 - Partly cloudy 10 - - - -
18/08:09am 23.3 ENE 16 26 1014.3 - 16.0 - Partly cloudy 10 - - - -
18/08:00am 23.2 ENE 16 23 1014.2 - 16.0 - Partly cloudy 10 - - - -
18/07:30am 22.8 E 22 28 1013.0 - 16.0 - Partly cloudy 10 - - - -
18/07:00am 22.5 E 21 29 1012.8 - 16.0 - Partly cloudy 10 - - - -
18/06:30am 22.5 E 21 33 1012.1 - 16.0 - Partly cloudy 10 - - - -
18/06:00am 22.3 E 23 30 1012.3 - 15.8 Rain Cloudy 10 - - - -
18/05:59am 22.5 E 23 30 1012.1 - 15.6 - Partly cloudy 10 - - - -
18/05:47am 23.0 ESE 21 24 1012.1 - 15.4 - Partly cloudy 9 - - - -
18/05:39am 23.2 ESE 19 22 1012.0 - 14.4 - Partly cloudy 10 - - - -
18/05:30am 23.2 ESE 15 18 1012.0 - 14.2 - Partly cloudy 10 - - - -
18/05:29am 23.1 ESE 15 17 1012.0 - 14.2 - Partly cloudy 10 - - - -
18/05:00am 22.7 E 16 20 1011.8 - 14.0 - Partly cloudy 10 - - - -
18/04:30am 22.5 E 23 26 1011.2 - 14.0 - Partly cloudy 10 - - - -
18/04:21am 22.5 E 25 28 1011.0 - 14.0 - Partly cloudy 10 - - - -
18/04:00am 22.5 E 23 32 1010.9 - 14.0 - Partly cloudy 10 - - - -
18/03:41am 22.7 E 21 28 1010.6 - 14.0 - Partly cloudy 10 - - - -
18/03:30am 22.6 E 24 29 1010.7 - 14.0 - Partly cloudy 10 - - - -
18/03:00am 22.5 E 18 25 1010.9 - 13.8 - Cloudy 10 - - - -
18/02:30am 22.5 E 18 24 1010.9 - 13.8 - Partly cloudy 10 - - - -
18/02:00am 22.8 E 22 27 1010.5 - 13.8 - Partly cloudy 10 - - - -
18/01:32am 22.5 ENE 16 26 1010.8 - 13.8 - Partly cloudy 10 - - - -
18/01:30am 22.6 ENE 15 20 1011.0 - 13.8 - Partly cloudy 10 - - - -
18/01:00am 22.4 E 11 20 1011.1 - 13.8 - Partly cloudy 10 - - - -
18/12:53am 22.3 E 17 28 1011.2 - 13.8 - Partly cloudy 10 - - - -
18/12:30am 21.8 E 22 27 1011.4 - 13.6 - Partly cloudy 7 - - - -
18/12:00am 21.6 E 16 22 1011.9 - 12.4 Recent precip. Mostly cloudy 10 - - - -
 
Date/Time
EST
Temp
°C
Wind Pressure Rain since
9am
mm
Weather Cloud Vis
km
Sea
Height
m
Swell
Dir  Spd
kts
Gust
kts
hPa Trend Height
m
Period
s
Dir
17/11:37pm 21.8 ENE 15 20 1012.9 - 12.0 - Partly cloudy 9 - - - -
17/11:30pm 21.8 ENE 16 21 1013.2 - 11.6 - Partly cloudy 7 - - - -
17/11:00pm 21.8 E 19 25 1013.6 - 9.4 - Partly cloudy 8 - - - -
17/10:46pm 21.8 ENE 18 24 1013.4 - 8.4 - Partly cloudy 9 - - - -
17/10:30pm 22.4 ENE 18 23 1013.5 - 7.2 - Partly cloudy 5 - - - -
17/10:23pm 22.5 ENE 17 21 1013.7 - 6.4 - Partly cloudy 6 - - - -
17/10:00pm 22.5 ENE 20 27 1013.2 - 4.8 - Partly cloudy 10 - - - -
17/09:44pm 22.6 E 18 25 1012.9 - 4.4 - Partly cloudy 10 - - - -
17/09:30pm 22.3 ENE 20 26 1012.5 - 4.0 - Partly cloudy 10 - - - -
17/09:16pm 23.3 E 16 20 1012.4 - 3.8 - Partly cloudy 10 - - - -
17/09:00pm 23.1 E 16 19 1012.3 - 3.6 Recent precip. Cloudy 10 - - - -
17/08:30pm 22.9 E 17 20 1012.7 - 3.0 - Partly cloudy 10 - - - -
17/08:00pm 23.1 E 19 22 1012.1 - 2.4 - - 10 - - - -
17/07:30pm 23.0 E 17 20 1011.9 - 2.0 - Partly cloudy 10 - - - -
17/07:00pm 22.8 E 12 14 1011.8 - 2.0 - Partly cloudy 10 - - - -
17/06:50pm 22.6 ENE 13 15 1011.6 - 2.0 - Partly cloudy 10 - - - -
17/06:30pm 22.8 E 13 16 1011.7 - 2.0 - Partly cloudy 10 - - - -
17/06:00pm 23.3 SE 14 16 1011.2 - 2.0 Rain Cloudy 10 - - - -
17/05:30pm 23.4 SE 9 11 1011.4 - 1.6 - Partly cloudy 10 - - - -
17/05:24pm 23.4 SE 9 10 1011.4 - 1.2 - Partly cloudy 10 - - - -
17/05:00pm 23.5 SE 10 12 1011.3 - 1.0 - Partly cloudy 10 - - - -
17/04:30pm 23.8 ESE 11 13 1011.1 - 0.2 - Partly cloudy 10 - - - -
17/04:00pm 24.3 ESE 10 11 1010.8 - 0.2 - - 10 - - - -
17/03:30pm 24.6 SE 11 12 1010.4 - 0.2 - Partly cloudy 10 - - - -
17/03:00pm 25.2 ESE 10 12 1010.5 - 0.2 - Cloudy 10 - - - -
17/02:30pm 25.8 SE 10 12 1010.6 - 0.2 - - 10 - - - -
17/02:00pm 26.1 ESE 9 11 1010.8 - 0.2 - - 10 - - - -
17/01:30pm 25.9 ESE 10 12 1011.1 - 0.2 - - 10 - - - -
17/01:00pm 26.7 ESE 9 11 1011.2 - 0.2 - - 10 - - - -
17/12:30pm 26.4 ESE 10 12 1011.8 - 0.2 - - 10 - - - -
17/12:00pm 25.6 ESE 9 11 1012.5 - 0.2 - Mostly cloudy 10 - - - -
17/11:30am 25.0 E 13 15 1012.7 - 0.2 - Partly cloudy 10 - - - -
17/11:00am 24.8 E 14 17 1012.9 - 0.2 - Partly cloudy 10 - - - -
17/10:30am 24.9 ESE 16 17 1013.5 - 0.2 - Partly cloudy 10 - - - -
17/10:00am 25.3 ESE 16 18 1013.5 - 0.2 - Partly cloudy 10 - - - -
17/09:30am 25.6 ESE 15 18 1013.8 - 0.0 - Partly cloudy 10 - - - -
17/09:18am 25.0 ESE 15 17 1013.7 - 0.0 - Partly cloudy 10 - - - -
17/09:00am 24.4 SSE 12 15 1013.3 - 56.4 - Cloudy 10 - - - -
17/08:30am 24.2 SSE 16 19 1012.8 - 56.4 - Partly cloudy 10 - - - -
17/08:00am 23.4 SE 15 17 1012.8 - 56.4 - Partly cloudy 10 - - - -
17/07:31am 23.3 SSE 15 17 1012.4 - 56.4 - Partly cloudy 10 - - - -
17/07:30am 23.3 SSE 15 17 1012.4 - 56.4 - Partly cloudy 10 - - - -
17/07:27am 23.4 SE 15 18 1012.2 - 56.4 - Partly cloudy 10 - - - -
17/07:00am 23.2 SSE 15 17 1011.7 - 56.4 - Partly cloudy 10 - - - -
17/06:39am 23.3 SSE 15 17 1011.3 - 56.4 - Partly cloudy 10 - - - -
17/06:32am 23.7 SSE 15 18 1011.3 - 56.4 - Partly cloudy 10 - - - -
17/06:30am 23.5 SE 15 18 1011.1 - 56.4 - Partly cloudy 10 - - - -
17/06:00am 23.2 SE 16 18 1010.7 - 56.4 - Cloudy 10 - - - -
17/05:30am 23.0 SE 13 16 1010.2 - 56.4 - Partly cloudy 10 - - - -
17/05:04am 22.9 ESE 9 11 1010.0 - 56.4 - Partly cloudy 10 - - - -
17/05:00am 22.8 SE 9 11 1009.8 - 56.4 - Partly cloudy 10 - - - -
17/04:32am 22.8 ESE 13 16 1009.2 - 56.4 - Partly cloudy 10 - - - -
17/04:30am 22.8 ESE 14 16 1009.2 - 56.4 - Partly cloudy 10 - - - -
17/04:00am 22.7 SE 12 14 1009.4 - 56.4 - Cloudy 10 - - - -
17/03:30am 22.4 SE 8 10 1010.1 - 56.4 - Partly cloudy 10 - - - -
17/03:00am 22.2 SSE 10 14 1010.2 - 56.4 - Cloudy 10 - - - -
17/02:30am 22.1 SSE 10 13 1010.4 - 56.4 - Partly cloudy 10 - - - -
17/02:00am 22.1 SE 10 12 1011.0 - 56.4 - Partly cloudy 10 - - - -
17/01:30am 22.1 SSE 9 11 1011.3 - 56.4 - Partly cloudy 10 - - - -
17/01:00am 22.2 SSE 8 10 1011.9 - 56.4 - Partly cloudy 10 - - - -
17/12:30am 22.2 SSE 7 9 1012.4 - 56.4 - Cloudy 10 - - - -
17/12:05am 22.0 SE 7 8 1012.7 - 56.4 - Partly cloudy 10 - - - -
17/12:00am 22.0 SE 6 8 1012.7 - 56.4 - Cloudy 10 - - - -
 
Date/Time
EST
Temp
°C
Wind Pressure Rain since
9am
mm
Weather Cloud Vis
km
Sea
Height
m
Swell
Dir  Spd
kts
Gust
kts
hPa Trend Height
m
Period
s
Dir
16/11:30pm 22.0 S 7 9 1012.7 - 56.4 - Cloudy 10 - - - -
16/11:00pm 22.2 S 8 10 1013.0 - 56.4 - Partly cloudy 10 - - - -
16/10:44pm 22.3 S 7 10 1013.1 - 56.4 - Partly cloudy 10 - - - -
16/10:30pm 22.4 S 8 9 1013.2 - 56.4 - Partly cloudy 10 - - - -
16/10:00pm 22.4 S 9 11 1013.4 - 56.4 - Partly cloudy 10 - - - -
16/09:30pm 22.2 SSE 9 12 1013.0 - 56.4 - Cloudy 10 - - - -
16/09:00pm 22.0 SSE 9 11 1013.1 - 56.4 - Cloudy 10 - - - -
16/08:30pm 21.6 SE 8 10 1013.0 - 56.4 - Partly cloudy 10 - - - -
16/08:00pm 21.5 E 6 9 1012.6 - 56.4 - Partly cloudy 10 - - - -
16/07:30pm 21.7 ESE 9 11 1012.2 - 56.2 - Partly cloudy 10 - - - -
16/07:00pm 21.4 ESE 10 13 1012.1 - 56.2 - Cloudy 10 - - - -
16/06:30pm 21.5 ESE 11 13 1011.7 - 56.2 - Cloudy 10 - - - -
16/06:00pm 21.5 E 13 15 1011.4 - 56.2 Recent precip. Cloudy 10 - - - -
16/05:30pm 21.6 ESE 15 19 1011.2 - 56.0 - Partly cloudy 10 - - - -
16/05:00pm 20.9 ESE 16 19 1011.0 - 55.2 - Partly cloudy 9 - - - -
16/04:49pm 21.4 ESE 17 20 1010.8 - 54.6 - Partly cloudy 8 - - - -
16/04:32pm 21.0 ESE 17 19 1010.8 - 53.6 - Partly cloudy 8 - - - -
16/04:30pm 21.0 ESE 17 19 1010.8 - 53.6 - Partly cloudy 8 - - - -
16/04:00pm 21.2 E 18 21 1010.9 - 50.2 - Partly cloudy 1 - - - -
16/03:48pm 21.6 SE 16 20 1010.8 - 48.4 - Partly cloudy 3 - - - -
16/03:46pm 21.5 SE 17 20 1010.7 - 48.2 - Partly cloudy 2 - - - -
16/03:30pm 21.2 ESE 15 19 1010.2 - 45.8 - Partly cloudy 1 - - - -
16/03:00pm 21.0 E 18 23 1010.2 - 30.6 Showers Cloudy 0.5 - - - -
16/02:40pm 21.7 ESE 23 27 1009.8 - 10.8 - Cloudy 6 - - - -
16/02:30pm 22.6 ESE 18 22 1009.8 - 9.0 - Partly cloudy 10 - - - -
16/02:00pm 23.0 SSE 16 19 1010.3 - 9.0 - Partly cloudy 10 - - - -
16/01:30pm 22.7 SSE 15 18 1010.5 - 9.0 - Partly cloudy 10 - - - -
16/01:00pm 22.6 SE 14 17 1010.8 - 9.0 - Partly cloudy 10 - - - -
16/12:45pm 22.6 SE 18 20 1010.9 - 9.0 - Partly cloudy 10 - - - -
16/12:30pm 22.5 SE 20 23 1010.8 - 9.0 - Partly cloudy 10 - - - -
16/12:21pm 22.3 SE 21 23 1010.8 - 9.0 - Partly cloudy 10 - - - -
16/12:10pm 21.6 SE 19 22 1011.0 - 9.0 - Partly cloudy 10 - - - -
16/12:00pm 21.7 SSE 15 18 1011.4 - 9.0 Recent precip. Cloudy 10 - - - -
16/11:54am 21.6 SSE 14 18 1011.6 - 9.0 - Partly cloudy 10 - - - -
16/11:30am 20.9 SSE 16 20 1012.0 - 7.2 - Partly cloudy 2 - - - -
16/11:18am 21.1 SE 16 22 1012.1 - 5.2 - Partly cloudy 3 - - - -
16/11:00am 22.0 SE 13 17 1012.2 - 3.4 - Partly cloudy 2 - - - -
16/10:50am 21.3 ESE 13 18 1012.5 - 2.2 - Partly cloudy 3 - - - -
16/10:48am 21.5 SE 13 18 1012.4 - 1.8 - Partly cloudy 10 - - - -
16/10:30am 22.7 S 13 16 1012.5 - 0.0 - Partly cloudy 10 - - - -
16/10:00am 22.7 S 13 16 1012.8 - 0.0 - Partly cloudy 10 - - - -
16/09:30am 22.7 S 12 16 1012.8 - 0.0 - Partly cloudy 10 - - - -
16/09:02am 22.9 SSE 11 13 1012.6 - 0.0 - Partly cloudy 10 - - - -
16/09:00am 22.8 SE 11 13 1012.7 - 8.8 Recent precip. Cloudy 10 - - - -
16/08:40am 22.5 SE 9 11 1012.6 - 8.8 - Partly cloudy 10 - - - -
16/08:30am 22.5 SE 9 11 1012.7 - 8.8 - Partly cloudy 10 - - - -
16/08:00am 22.5 ESE 11 12 1012.7 - 8.4 - Partly cloudy 10 - - - -
16/07:30am 21.3 E 15 19 1012.3 - 8.0 - Partly cloudy 8 - - - -
16/07:00am 20.9 E 23 30 1011.6 - 6.6 - Partly cloudy 3 - - - -
16/06:54am 21.0 ESE 14 30 1011.6 - 6.4 - Partly cloudy 0.8 - - - -
16/06:30am 21.9 ESE 14 17 1011.9 - 4.4 - Partly cloudy 5 - - - -
16/06:16am 22.1 SE 19 22 1011.9 - 2.2 - Partly cloudy 6 - - - -
16/06:00am 23.4 ESE 13 19 1011.6 - 0.0 - Cloudy 10 - - - -
16/05:30am 23.9 SE 14 16 1011.4 - 0.0 - Partly cloudy 10 - - - -
16/05:00am 24.0 ESE 14 17 1011.1 - 0.0 - Partly cloudy 10 - - - -
16/04:30am 23.9 ESE 15 19 1010.8 - 0.0 - Partly cloudy 10 - - - -
16/04:00am 23.8 ESE 17 19 1010.3 - 0.0 - Partly cloudy 10 - - - -
16/03:30am 23.7 SE 17 19 1009.9 - 0.0 - Partly cloudy 10 - - - -
16/03:00am 23.8 ESE 16 19 1010.0 - 0.0 - Cloudy 10 - - - -
16/02:30am 23.5 SE 15 19 1010.3 - 0.0 - Partly cloudy 10 - - - -
16/02:00am 23.9 SE 18 21 1010.4 - 0.0 - Partly cloudy 10 - - - -
16/01:30am 24.0 SE 17 19 1010.4 - 0.0 - Partly cloudy 10 - - - -
16/01:00am 23.9 SE 16 19 1010.6 - 0.0 - Partly cloudy 10 - - - -
16/12:30am 23.8 SE 17 21 1010.9 - 0.0 - Partly cloudy 10 - - - -
16/12:00am 24.0 SE 16 18 1011.2 - 0.0 - Cloudy 10 - - - -
 
Date/Time
EST
Temp
°C
Wind Pressure Rain since
9am
mm
Weather Cloud Vis
km
Sea
Height
m
Swell
Dir  Spd
kts
Gust
kts
hPa Trend Height
m
Period
s
Dir
15/11:30pm 24.0 SE 14 17 1011.3 - 0.0 - Partly cloudy 10 - - - -
15/11:00pm 24.0 SE 14 17 1011.6 - 0.0 - Partly cloudy 10 - - - -
15/10:30pm 24.1 SE 15 18 1011.6 - 0.0 - Partly cloudy 10 - - - -
15/10:00pm 24.2 ESE 17 20 1011.7 - 0.0 - Partly cloudy 10 - - - -
15/09:30pm 24.4 SE 19 23 1011.6 - 0.0 - - 10 - - - -
15/09:00pm 24.2 SE 19 22 1011.3 - 0.0 - Cloudy 10 - - - -
15/08:35pm 24.2 SE 18 21 1011.5 - 0.0 - Partly cloudy 10 - - - -
15/08:30pm 24.2 SE 17 20 1011.5 - 0.0 - Partly cloudy 10 - - - -
15/08:01pm 24.1 ESE 15 17 1011.0 - 0.0 - Partly cloudy 10 - - - -
15/08:00pm 24.1 ESE 15 17 1011.0 - 0.0 - Partly cloudy 10 - - - -
15/07:30pm 23.9 ESE 14 16 1010.7 - 0.0 - Partly cloudy 10 - - - -
15/07:00pm 24.0 ESE 14 17 1010.8 - 0.0 - Partly cloudy 10 - - - -
15/06:30pm 23.9 ESE 13 15 1010.6 - 0.0 - Partly cloudy 10 - - - -
15/06:00pm 24.1 ESE 15 17 1010.0 - 0.0 - Mostly cloudy 10 - - - -
15/05:30pm 24.0 ESE 16 19 1009.4 - 0.0 - Partly cloudy 10 - - - -
15/05:00pm 24.4 ESE 15 19 1009.5 - 0.0 - Partly cloudy 10 - - - -
15/04:30pm 24.4 ESE 17 19 1008.7 - 0.0 - Partly cloudy 10 - - - -
15/04:00pm 24.8 ESE 18 21 1008.7 - 0.0 - Partly cloudy 10 - - - -
15/03:30pm 25.2 ESE 16 19 1008.9 - 0.0 - Partly cloudy 10 - - - -
15/03:00pm 26.2 ESE 17 19 1008.7 - 0.0 - - 10 - - - -
15/02:30pm 26.5 ESE 17 18 1009.1 - 0.0 - - 10 - - - -
15/02:00pm 26.8 E 14 17 1009.7 - 0.0 - Partly cloudy 10 - - - -
15/01:30pm 26.5 E 13 15 1010.1 - 0.0 - - 10 - - - -
15/01:00pm 26.6 E 13 15 1010.4 - 0.0 - - 10 - - - -
15/12:30pm 27.0 E 14 16 1010.5 - 0.0 - - 10 - - - -
15/12:00pm 27.0 E 11 13 1011.1 - 0.0 - Partly cloudy 10 - - - -
15/11:30am 27.8 ESE 13 15 1011.3 - 0.0 - Partly cloudy 10 - - - -
15/11:00am 26.9 E 12 14 1011.6 - 0.0 - Partly cloudy 10 - - - -
15/10:30am 27.4 E 12 15 1011.8 - 0.0 - Partly cloudy 10 - - - -
15/10:00am 27.1 ESE 11 13 1011.9 - 0.0 - - 10 - - - -
15/09:30am 27.2 ESE 11 14 1012.1 - 0.0 - Partly cloudy 10 - - - -
15/09:00am 26.5 E 13 15 1012.0 - 0.2 - Mostly clear 10 - - - -

Other Formats:

Comma delimited format used in spreadsheet applications
http://www.bom.gov.au/fwo/IDQ60701/IDQ60701.94368.axf

JavaScript Object Notation format (JSON) in row-major order
http://www.bom.gov.au/fwo/IDQ60701/IDQ60701.94368.json